Time;durP1;ratioP1;P1;durP2;ratioP2;P2;SDS_P1;SDS_P2;PMS_P1;PMS_P2;Temp;Humidity;BMP_temperature;BMP_pressure;BME280_temperature;BME280_humidity;BME280_pressure;Samples;Min_cycle;Max_cycle;Signal;HPM_P1;HPM_P2
2023/06/07 00:00:09;;;;;;;25.77;13.00;;;16.10;87.50;;;;;;5055971;28;21046;-60
2023/06/07 00:02:38;;;;;;;34.97;13.37;;;14.80;86.00;;;;;;5071247;28;20505;-60
2023/06/07 00:05:07;;;;;;;26.77;13.33;;;14.70;85.60;;;;;;5057675;28;20480;-60
2023/06/07 00:07:35;;;;;;;36.57;13.63;;;;;;;;;;5061757;28;20658;-59
2023/06/07 00:10:02;;;;;;;25.53;13.07;;;14.30;88.40;;;;;;5080479;28;20490;-59
2023/06/07 00:12:29;;;;;;;40.47;16.33;;;14.20;89.10;;;;;;5074575;28;20530;-60
2023/06/07 00:14:56;;;;;;;28.37;13.43;;;14.30;88.10;;;;;;5068942;28;20483;-60
2023/06/07 00:17:24;;;;;;;56.57;19.73;;;14.40;87.60;;;;;;5066111;28;21010;-60
2023/06/07 00:19:52;;;;;;;36.33;14.63;;;14.30;87.60;;;;;;5062131;28;20872;-60
2023/06/07 00:22:20;;;;;;;61.83;19.43;;;14.30;87.80;;;;;;5071655;28;20505;-60
2023/06/07 00:24:47;;;;;;;28.73;13.67;;;14.30;87.40;;;;;;5070541;28;20978;-60
2023/06/07 00:27:14;;;;;;;32.63;13.60;;;14.40;86.80;;;;;;5073674;28;20466;-59
2023/06/07 00:29:41;;;;;;;28.33;13.27;;;14.40;87.30;;;;;;5072047;28;20561;-59
2023/06/07 00:32:08;;;;;;;19.10;12.30;;;14.40;87.20;;;;;;5072570;28;20475;-59
2023/06/07 00:34:35;;;;;;;27.03;12.30;;;14.40;87.20;;;;;;5066545;28;20751;-59
2023/06/07 00:37:02;;;;;;;24.47;12.97;;;14.40;87.80;;;;;;5078629;28;20834;-60
2023/06/07 00:39:30;;;;;;;50.67;19.00;;;14.40;87.90;;;;;;5058496;28;21036;-60
2023/06/07 00:41:57;;;;;;;26.43;12.93;;;14.40;87.40;;;;;;5074348;28;20485;-60
2023/06/07 00:44:24;;;;;;;44.30;16.10;;;14.50;87.10;;;;;;5062516;28;20489;-60
2023/06/07 00:46:52;;;;;;;25.60;10.80;;;14.50;87.00;;;;;;5068262;28;20474;-60
2023/06/07 00:49:19;;;;;;;46.50;16.60;;;14.50;86.10;;;;;;5060013;28;20520;-60
2023/06/07 00:51:47;;;;;;;42.13;12.47;;;14.50;86.90;;;;;;5071133;28;20483;-59
2023/06/07 00:54:17;;;;;;;35.67;14.27;;;14.40;86.80;;;;;;5051884;28;20494;-60
2023/06/07 00:56:49;;;;;;;32.87;13.70;;;14.20;86.60;;;;;;5070150;28;20481;-59
2023/06/07 00:59:17;;;;;;;42.00;15.47;;;13.90;87.80;;;;;;5074955;28;20483;-60
2023/06/07 01:01:47;;;;;;;33.60;13.17;;;13.80;87.60;;;;;;5066827;28;20474;-60
2023/06/07 01:04:14;;;;;;;48.63;16.90;;;13.70;87.40;;;;;;5047198;28;20473;-60
2023/06/07 01:06:41;;;;;;;30.23;13.37;;;13.80;87.30;;;;;;5067476;28;20493;-60
2023/06/07 01:09:13;;;;;;;32.13;12.73;;;13.70;87.50;;;;;;5045244;28;20894;-59
2023/06/07 01:11:43;;;;;;;38.40;13.47;;;13.60;88.00;;;;;;5080907;28;20592;-60
2023/06/07 01:14:12;;;;;;;32.30;13.10;;;13.60;88.00;;;;;;5068385;28;20482;-59
2023/06/07 01:16:40;;;;;;;23.63;11.70;;;13.70;88.10;;;;;;5068880;28;20472;-59
2023/06/07 01:19:10;;;;;;;31.13;10.63;;;13.70;88.40;;;;;;5071131;28;20509;-60
2023/06/07 01:21:39;;;;;;;36.57;14.17;;;13.70;87.90;;;;;;5056964;28;20494;-59
2023/06/07 01:24:09;;;;;;;21.57;11.40;;;13.70;87.60;;;;;;5079374;28;20483;-60
2023/06/07 01:26:37;;;;;;;26.03;10.47;;;13.70;88.10;;;;;;5064886;28;20854;-59
2023/06/07 01:29:07;;;;;;;26.80;13.03;;;13.70;88.00;;;;;;5064285;28;20494;-59
2023/06/07 01:31:36;;;;;;;25.27;11.87;;;13.80;87.30;;;;;;5073909;28;20483;-59
2023/06/07 01:34:05;;;;;;;16.80;10.50;;;13.70;87.30;;;;;;5053224;28;20847;-59
2023/06/07 01:36:32;;;;;;;34.07;13.80;;;13.70;86.60;;;;;;5063711;28;20467;-59
2023/06/07 01:39:01;;;;;;;24.53;11.90;;;13.70;87.30;;;;;;5055726;28;20489;-60
2023/06/07 01:41:30;;;;;;;47.87;17.57;;;13.60;87.20;;;;;;5073400;28;20698;-60
2023/06/07 01:43:58;;;;;;;30.60;12.67;;;13.60;87.30;;;;;;5068334;28;20510;-60
2023/06/07 01:46:26;;;;;;;52.13;16.83;;;13.50;87.20;;;;;;5066565;28;20473;-60
2023/06/07 01:48:53;;;;;;;32.30;12.97;;;13.30;87.00;;;;;;5065433;28;21019;-59
2023/06/07 01:51:20;;;;;;;27.83;12.00;;;13.10;88.20;;;;;;5053606;28;20486;-59
2023/06/07 01:53:50;;;;;;;26.73;10.70;;;13.10;87.50;;;;;;5068443;28;20492;-60
2023/06/07 01:56:25;;;;;;;56.10;18.90;;;13.00;87.20;;;;;;5070734;28;21005;-60
2023/06/07 01:59:04;;;;;;;38.80;15.17;;;13.00;88.20;;;;;;5064797;28;20475;-60
2023/06/07 02:01:39;;;;;;;34.17;13.57;;;13.00;88.40;;;;;;5057796;28;20822;-60
2023/06/07 02:04:11;;;;;;;25.77;12.03;;;13.00;88.80;;;;;;5071404;28;21006;-59
2023/06/07 02:06:41;;;;;;;32.53;14.37;;;13.00;88.40;;;;;;5059282;28;21001;-60
2023/06/07 02:09:11;;;;;;;28.47;13.20;;;12.90;89.20;;;;;;5064162;28;20479;-59
2023/06/07 02:11:40;;;;;;;36.70;14.43;;;13.00;88.80;;;;;;5055584;28;20561;-60
2023/06/07 02:14:10;;;;;;;29.03;12.67;;;12.90;88.40;;;;;;5062528;28;20975;-59
2023/06/07 02:16:37;;;;;;;36.30;15.00;;;12.90;88.30;;;;;;5046119;28;20653;-60
2023/06/07 02:19:06;;;;;;;25.07;10.67;;;15.00;90.20;;;;;;5062649;28;20495;-60
2023/06/07 02:21:34;;;;;;;29.57;12.37;;;12.90;88.60;;;;;;5055339;28;20479;-59
2023/06/07 02:24:02;;;;;;;23.73;11.83;;;12.90;89.00;;;;;;5056594;28;20511;-60
2023/06/07 02:26:29;;;;;;;47.03;15.63;;;12.90;88.60;;;;;;5052976;28;20509;-60
2023/06/07 02:28:56;;;;;;;18.43;10.77;;;12.90;89.00;;;;;;5032850;28;20488;-60
2023/06/07 02:31:25;;;;;;;55.77;18.77;;;12.90;88.30;;;;;;5062664;28;20495;-59
2023/06/07 02:33:52;;;;;;;25.73;11.70;;;12.90;87.90;;;;;;5042232;28;20889;-60
2023/06/07 02:36:21;;;;;;;50.53;17.43;;;12.90;88.50;;;;;;5053051;28;20642;-60
2023/06/07 02:38:48;;;;;;;35.43;14.67;;;13.00;88.80;;;;;;5045573;28;20556;-60
2023/06/07 02:41:15;;;;;;;32.33;13.90;;;12.90;88.40;;;;;;5021451;28;20881;-62
2023/06/07 02:43:42;;;;;;;30.73;12.60;;;12.90;87.90;;;;;;5053757;28;21311;-60
2023/06/07 02:46:11;;;;;;;22.20;10.90;;;12.80;87.50;;;;;;5052280;28;20493;-62
2023/06/07 02:48:39;;;;;;;34.43;14.00;;;12.50;88.00;;;;;;5042053;28;20490;-60
2023/06/07 02:51:06;;;;;;;22.90;10.67;;;12.10;89.60;;;;;;5062824;28;20899;-60
2023/06/07 02:53:33;;;;;;;24.43;10.80;;;11.80;90.30;;;;;;5058938;28;20518;-60
2023/06/07 02:56:00;;;;;;;17.40;9.77;;;11.80;90.60;;;;;;5042028;28;21010;-59
2023/06/07 02:58:27;;;;;;;51.83;18.37;;;11.60;91.30;;;;;;5041713;28;20480;-59
2023/06/07 03:00:54;;;;;;;23.60;11.50;;;11.60;91.70;;;;;;5039591;28;20495;-58
2023/06/07 03:03:21;;;;;;;49.60;18.23;;;11.60;91.80;;;;;;5047401;28;20483;-59
2023/06/07 03:05:49;;;;;;;35.40;14.97;;;11.60;92.10;;;;;;5006581;28;20488;-59
2023/06/07 03:08:16;;;;;;;37.73;13.33;;;11.70;91.70;;;;;;5035167;28;20479;-59
2023/06/07 03:10:43;;;;;;;29.90;12.47;;;11.80;91.20;;;;;;5052816;28;20552;-59
2023/06/07 03:13:10;;;;;;;19.17;10.07;;;11.90;90.80;;;;;;5053677;28;20471;-59
2023/06/07 03:15:37;;;;;;;41.53;11.90;;;12.00;90.50;;;;;;5047019;28;20478;-59
2023/06/07 03:18:04;;;;;;;20.60;11.00;;;12.10;90.60;;;;;;5045619;28;20498;-59
2023/06/07 03:20:34;;;;;;;39.73;15.37;;;12.10;90.20;;;;;;5046732;28;20633;-59
2023/06/07 03:23:02;;;;;;;35.73;10.33;;;12.20;90.10;;;;;;5030941;28;20917;-60
2023/06/07 03:25:30;;;;;;;34.43;13.93;;;12.00;89.70;;;;;;5046973;28;20474;-60
2023/06/07 03:27:56;;;;;;;26.83;12.90;;;12.30;89.80;;;;;;5049605;28;20489;-59
2023/06/07 03:30:23;;;;;;;30.43;13.57;;;10.90;87.50;;;;;;5048244;28;20475;-59
2023/06/07 03:32:50;;;;;;;32.13;12.00;;;12.30;89.40;;;;;;5043959;28;20754;-59
2023/06/07 03:35:17;;;;;;;46.47;16.87;;;12.30;89.60;;;;;;5025191;28;20531;-59
2023/06/07 03:37:44;;;;;;;32.40;13.47;;;12.20;89.10;;;;;;5052732;28;20486;-59
2023/06/07 03:40:13;;;;;;;22.67;11.57;;;12.30;88.60;;;;;;5052533;28;20470;-59
2023/06/07 03:42:42;;;;;;;27.10;12.80;;;12.30;88.70;;;;;;5068167;28;20495;-58
2023/06/07 03:45:10;;;;;;;27.97;12.27;;;13.10;89.80;;;;;;5048458;28;20478;-59
2023/06/07 03:47:37;;;;;;;32.93;12.20;;;12.20;88.60;;;;;;5040606;28;20488;-60
2023/06/07 03:50:06;;;;;;;25.13;11.60;;;12.20;88.70;;;;;;5048395;28;20532;-60
2023/06/07 03:52:32;;;;;;;29.43;11.97;;;12.10;89.00;;;;;;5038331;28;20871;-59
2023/06/07 03:54:59;;;;;;;29.17;12.50;;;12.00;89.90;;;;;;5049725;28;20482;-60
2023/06/07 03:57:27;;;;;;;42.50;15.80;;;12.00;89.50;;;;;;5064667;28;20473;-60
2023/06/07 03:59:55;;;;;;;27.27;11.03;;;12.00;89.80;;;;;;5032048;28;20483;-59
2023/06/07 04:02:21;;;;;;;42.83;16.10;;;12.00;89.90;;;;;;5047039;28;20540;-60
2023/06/07 04:04:49;;;;;;;34.20;14.43;;;12.10;89.80;;;;;;5060883;28;20483;-59
2023/06/07 04:07:16;;;;;;;43.53;14.77;;;12.10;89.60;;;;;;5037628;28;20623;-59
2023/06/07 04:09:43;;;;;;;27.60;12.33;;;12.10;89.50;;;;;;5053767;28;20679;-59
2023/06/07 04:12:10;;;;;;;22.13;11.20;;;12.20;89.20;;;;;;5041028;28;20484;-59
2023/06/07 04:14:38;;;;;;;27.77;11.83;;;12.20;89.50;;;;;;5036035;28;20769;-59
2023/06/07 04:17:05;;;;;;;28.33;12.40;;;12.10;89.60;;;;;;5051303;28;20466;-60
2023/06/07 04:19:32;;;;;;;32.20;13.20;;;12.10;89.30;;;;;;5056746;28;20474;-60
2023/06/07 04:21:59;;;;;;;23.03;10.37;;;12.10;89.90;;;;;;5043810;28;20782;-59
2023/06/07 04:24:26;;;;;;;40.37;14.70;;;12.00;89.80;;;;;;5055621;28;20487;-60
2023/06/07 04:26:56;;;;;;;22.00;10.90;;;12.00;90.10;;;;;;5050832;28;21014;-59
2023/06/07 04:29:25;;;;;;;51.33;17.27;;;12.00;90.40;;;;;;5022171;28;20534;-60
2023/06/07 04:31:56;;;;;;;30.20;13.10;;;12.00;90.70;;;;;;5032216;28;20567;-59
2023/06/07 04:34:23;;;;;;;36.73;14.73;;;12.20;91.00;;;;;;5048888;28;20590;-59
2023/06/07 04:36:51;;;;;;;30.67;13.30;;;12.30;91.10;;;;;;5054755;28;20495;-60
2023/06/07 04:39:20;;;;;;;44.83;16.70;;;12.40;91.40;;;;;;5057435;28;20480;-60
2023/06/07 04:41:48;;;;;;;24.70;11.67;;;12.50;91.00;;;;;;5057089;28;20602;-59
2023/06/07 04:44:28;;;;;;;34.30;14.50;;;12.60;91.00;;;;;;5050999;28;20483;-59
2023/06/07 04:46:57;;;;;;;34.17;13.37;;;12.60;91.10;;;;;;5048795;28;20531;-59
2023/06/07 04:49:25;;;;;;;48.43;15.80;;;12.60;91.20;;;;;;5046861;28;20483;-59
2023/06/07 04:51:52;;;;;;;24.90;11.63;;;12.70;91.30;;;;;;5055128;28;20860;-59
2023/06/07 04:54:19;;;;;;;35.03;15.00;;;12.80;91.30;;;;;;5044623;28;21288;-59
2023/06/07 04:56:47;;;;;;;25.07;12.83;;;12.80;91.20;;;;;;5048355;28;20483;-59
2023/06/07 04:59:14;;;;;;;29.10;12.57;;;12.90;91.30;;;;;;5042885;28;20694;-59
2023/06/07 05:01:43;;;;;;;27.13;12.20;;;13.00;91.70;;;;;;5047781;28;20855;-59
2023/06/07 05:04:11;;;;;;;23.23;11.13;;;13.10;91.70;;;;;;5051289;28;21056;-59
2023/06/07 05:06:38;;;;;;;26.13;11.93;;;13.20;92.10;;;;;;5036885;28;20488;-59
2023/06/07 05:09:05;;;;;;;22.23;9.80;;;13.30;92.10;;;;;;5050293;28;20602;-59
2023/06/07 05:11:32;;;;;;;36.60;15.27;;;13.50;92.30;;;;;;5040860;28;20547;-59
2023/06/07 05:13:58;;;;;;;20.40;11.17;;;13.50;92.20;;;;;;5048564;28;20486;-60
2023/06/07 05:16:25;;;;;;;37.00;15.33;;;13.70;92.30;;;;;;5037758;28;20832;-60
2023/06/07 05:18:53;;;;;;;23.17;11.47;;;13.80;92.80;;;;;;5047188;28;20482;-59
2023/06/07 05:21:21;;;;;;;44.90;18.30;;;13.90;92.60;;;;;;5047815;28;20835;-59
2023/06/07 05:23:48;;;;;;;32.30;13.57;;;14.10;92.60;;;;;;5058751;28;20475;-59
2023/06/07 05:26:14;;;;;;;24.10;11.83;;;14.10;92.40;;;;;;5049768;28;20482;-59
2023/06/07 05:28:41;;;;;;;28.10;13.70;;;14.20;92.50;;;;;;5038066;28;20831;-59
2023/06/07 05:31:09;;;;;;;26.87;13.07;;;14.30;92.70;;;;;;5038692;28;20486;-59
2023/06/07 05:33:35;;;;;;;29.80;13.70;;;14.40;92.80;;;;;;5041931;28;20478;-59
2023/06/07 05:36:02;;;;;;;18.30;11.10;;;14.50;92.80;;;;;;5026769;28;20469;-59
2023/06/07 05:38:30;;;;;;;39.87;15.70;;;14.70;92.60;;;;;;5045553;28;20490;-59
2023/06/07 05:40:57;;;;;;;22.93;12.30;;;14.80;92.50;;;;;;5033747;28;20484;-59
2023/06/07 05:43:24;;;;;;;33.23;15.80;;;14.90;92.70;;;;;;5020012;28;20486;-60
2023/06/07 05:45:51;;;;;;;27.97;12.30;;;15.10;92.30;;;;;;5050686;28;21054;-59
2023/06/07 05:48:18;;;;;;;27.23;13.70;;;15.30;92.40;;;;;;5054722;28;20990;-58
2023/06/07 05:50:45;;;;;;;33.97;14.60;;;15.40;92.50;;;;;;5044886;28;20504;-59
2023/06/07 05:53:12;;;;;;;33.77;12.73;;;15.60;92.40;;;;;;5054042;28;20492;-58
2023/06/07 05:55:40;;;;;;;27.20;13.37;;;15.70;91.90;;;;;;5051132;28;20494;-59
2023/06/07 05:58:07;;;;;;;20.10;11.47;;;15.90;91.90;;;;;;5046805;28;20472;-59
2023/06/07 06:00:34;;;;;;;28.77;12.37;;;16.00;91.80;;;;;;5038358;28;20488;-59
2023/06/07 06:03:01;;;;;;;21.97;12.50;;;15.10;91.40;;;;;;5046843;28;20540;-59
2023/06/07 06:05:28;;;;;;;36.30;15.83;;;16.30;91.80;;;;;;5043541;28;20568;-59
2023/06/07 06:07:55;;;;;;;22.73;11.83;;;16.50;91.50;;;;;;5052631;28;20479;-59
2023/06/07 06:10:22;;;;;;;38.30;17.83;;;16.60;91.40;;;;;;5035523;28;20917;-59
2023/06/07 06:12:51;;;;;;;20.83;11.83;;;16.70;91.70;;;;;;5053766;28;21449;-59
2023/06/07 06:15:18;;;;;;;38.33;15.07;;;16.90;91.50;;;;;;5041720;28;20479;-59
2023/06/07 06:17:44;;;;;;;23.10;12.23;;;17.10;92.00;;;;;;5053518;28;21019;-59
2023/06/07 06:20:12;;;;;;;29.07;14.63;;;17.20;91.70;;;;;;5037350;28;20557;-59
2023/06/07 06:22:39;;;;;;;23.53;11.83;;;17.40;91.20;;;;;;5029275;28;21059;-59
2023/06/07 06:25:07;;;;;;;21.80;11.90;;;17.60;90.80;;;;;;5048464;28;20490;-59
2023/06/07 06:27:33;;;;;;;21.37;12.47;;;17.70;90.80;;;;;;5061573;28;20490;-60
2023/06/07 06:30:02;;;;;;;25.50;11.80;;;17.90;90.90;;;;;;5043211;28;20471;-59
2023/06/07 06:32:28;;;;;;;32.33;16.47;;;18.10;90.90;;;;;;5047819;28;20520;-59
2023/06/07 06:34:56;;;;;;;19.33;10.73;;;18.30;90.90;;;;;;5036715;28;20489;-59
2023/06/07 06:37:23;;;;;;;36.27;16.20;;;17.80;89.70;;;;;;5063746;28;22323;-60
2023/06/07 06:39:51;;;;;;;23.00;12.20;;;18.70;90.00;;;;;;5049539;28;20503;-59
2023/06/07 06:42:18;;;;;;;28.17;14.37;;;18.80;90.50;;;;;;5055541;28;20565;-59
2023/06/07 06:44:45;;;;;;;30.33;12.77;;;19.00;90.40;;;;;;5048125;28;20801;-59
2023/06/07 06:47:14;;;;;;;19.17;10.83;;;19.20;89.50;;;;;;5034843;28;20569;-59
2023/06/07 06:49:40;;;;;;;23.80;11.30;;;19.40;89.80;;;;;;5045370;28;20487;-60
2023/06/07 06:52:08;;;;;;;19.90;9.70;;;19.60;88.90;;;;;;5056075;28;20510;-60
2023/06/07 06:54:35;;;;;;;13.87;8.60;;;19.80;88.20;;;;;;5046259;28;20492;-59
2023/06/07 06:57:01;;;;;;;16.73;9.87;;;20.00;88.30;;;;;;5052304;28;20475;-59
2023/06/07 06:59:28;;;;;;;24.83;11.43;;;20.30;88.70;;;;;;5034956;28;20477;-60
2023/06/07 07:01:56;;;;;;;13.27;7.73;;;20.50;87.70;;;;;;5054564;28;20484;-59
2023/06/07 07:04:25;;;;;;;30.77;14.70;;;20.70;86.00;;;;;;5034650;28;20500;-59
2023/06/07 07:06:52;;;;;;;20.90;10.57;;;20.90;86.00;;;;;;5037976;28;20513;-59
2023/06/07 07:09:18;;;;;;;22.43;11.93;;;21.10;85.20;;;;;;5048546;28;20477;-60
2023/06/07 07:11:45;;;;;;;16.93;10.07;;;;;;;;;;5035535;28;20490;-59
2023/06/07 07:14:12;;;;;;;15.80;10.60;;;21.50;84.00;;;;;;5053304;28;20513;-59
2023/06/07 07:16:39;;;;;;;14.00;9.87;;;21.70;85.00;;;;;;5037720;28;20497;-59
2023/06/07 07:19:07;;;;;;;13.93;7.40;;;;;;;;;;5045162;28;20518;-60
2023/06/07 07:21:35;;;;;;;13.63;8.30;;;22.20;82.30;;;;;;5050298;28;20489;-59
2023/06/07 07:24:02;;;;;;;12.50;7.30;;;22.30;82.10;;;;;;5030154;28;20483;-59
2023/06/07 07:26:29;;;;;;;23.87;13.40;;;22.60;83.10;;;;;;5038809;28;20497;-59
2023/06/07 07:28:55;;;;;;;11.70;8.43;;;22.80;81.80;;;;;;5059433;28;21130;-59
2023/06/07 07:31:22;;;;;;;21.40;13.03;;;23.00;82.40;;;;;;5046136;28;21032;-59
2023/06/07 07:33:49;;;;;;;18.10;9.50;;;23.20;80.10;;;;;;5045304;28;20857;-59
2023/06/07 07:36:17;;;;;;;20.57;10.40;;;23.40;81.20;;;;;;5031352;28;20859;-59
2023/06/07 07:38:46;;;;;;;20.43;8.80;;;23.40;80.30;;;;;;5042798;28;20485;-59
2023/06/07 07:41:14;;;;;;;15.83;7.93;;;23.60;77.10;;;;;;5038282;28;20480;-59
2023/06/07 07:43:41;;;;;;;12.00;8.23;;;23.70;77.40;;;;;;5028556;28;20555;-60
2023/06/07 07:46:08;;;;;;;12.03;8.53;;;23.70;77.60;;;;;;5044650;28;20483;-59
2023/06/07 07:48:34;;;;;;;11.90;8.20;;;23.80;77.10;;;;;;5041401;28;20484;-59
2023/06/07 07:51:02;;;;;;;10.50;7.13;;;23.90;79.30;;;;;;5052009;28;20832;-59
2023/06/07 07:53:29;;;;;;;19.13;10.73;;;24.00;79.20;;;;;;5037963;28;20665;-59
2023/06/07 07:55:57;;;;;;;17.00;9.90;;;24.30;76.60;;;;;;5040612;28;20512;-59
2023/06/07 07:58:25;;;;;;;20.77;11.73;;;24.50;78.10;;;;;;5049395;28;20487;-60
2023/06/07 08:00:52;;;;;;;15.40;9.07;;;24.60;76.90;;;;;;5054601;28;20490;-60
2023/06/07 08:03:19;;;;;;;32.10;11.00;;;24.70;76.00;;;;;;5051657;28;20481;-60
2023/06/07 08:05:46;;;;;;;17.50;9.67;;;24.80;76.80;;;;;;5050573;28;20477;-60
2023/06/07 08:08:13;;;;;;;13.47;8.50;;;24.90;76.30;;;;;;5051717;28;20481;-60
2023/06/07 08:10:40;;;;;;;29.70;9.13;;;25.10;75.30;;;;;;5057752;28;20482;-60
2023/06/07 08:13:08;;;;;;;10.93;7.50;;;25.20;75.80;;;;;;5056742;28;20570;-60
2023/06/07 08:15:35;;;;;;;12.43;9.50;;;25.30;74.40;;;;;;5056703;28;20493;-60
2023/06/07 08:18:02;;;;;;;13.20;6.73;;;25.40;75.60;;;;;;5058417;28;20588;-61
2023/06/07 08:20:29;;;;;;;16.30;10.80;;;25.50;75.50;;;;;;5060470;28;20481;-60
2023/06/07 08:22:55;;;;;;;13.60;8.50;;;25.60;73.40;;;;;;5053276;28;20487;-61
2023/06/07 08:25:22;;;;;;;19.03;12.70;;;25.90;76.00;;;;;;5065812;28;20476;-61
2023/06/07 08:27:49;;;;;;;16.13;11.20;;;26.00;73.30;;;;;;5047374;28;20486;-60
2023/06/07 08:30:18;;;;;;;12.93;9.70;;;26.10;74.60;;;;;;5047672;28;20482;-61
2023/06/07 08:32:45;;;;;;;16.10;8.50;;;26.10;73.10;;;;;;5047768;28;21067;-61
2023/06/07 08:35:12;;;;;;;16.47;10.93;;;26.10;73.30;;;;;;5052299;28;20489;-61
2023/06/07 08:37:40;;;;;;;15.87;10.17;;;26.20;73.40;;;;;;5047186;28;20481;-61
2023/06/07 08:40:08;;;;;;;26.10;7.70;;;26.30;74.20;;;;;;5058201;28;20738;-61
2023/06/07 08:42:35;;;;;;;11.93;9.13;;;26.40;73.20;;;;;;5053390;28;20499;-61
2023/06/07 08:45:02;;;;;;;11.07;6.93;;;26.60;71.90;;;;;;5067076;28;20486;-60
2023/06/07 08:47:33;;;;;;;16.87;9.20;;;26.80;72.90;;;;;;5060748;28;21002;-60
2023/06/07 08:50:01;;;;;;;8.90;7.67;;;26.90;70.70;;;;;;5055033;28;20577;-60
2023/06/07 08:52:31;;;;;;;13.60;9.40;;;26.90;70.90;;;;;;5057709;28;20488;-60
2023/06/07 08:55:03;;;;;;;13.90;8.53;;;27.00;71.40;;;;;;5060613;28;20487;-60
2023/06/07 08:57:31;;;;;;;24.33;11.80;;;27.00;71.50;;;;;;5053256;28;20478;-59
2023/06/07 09:00:00;;;;;;;9.60;7.97;;;27.10;72.50;;;;;;5058399;28;21004;-60
2023/06/07 09:02:27;;;;;;;16.43;10.03;;;27.20;70.40;;;;;;5051560;28;20857;-59
2023/06/07 09:04:55;;;;;;;12.33;9.27;;;27.30;71.00;;;;;;5055780;28;20682;-60
2023/06/07 09:07:22;;;;;;;18.70;12.33;;;27.40;70.90;;;;;;5037708;28;20914;-60
2023/06/07 09:09:49;;;;;;;12.87;9.33;;;27.40;71.50;;;;;;5051303;28;20963;-59
2023/06/07 09:12:16;;;;;;;19.23;10.77;;;27.50;70.80;;;;;;5049406;28;21010;-60
2023/06/07 09:14:43;;;;;;;21.17;9.47;;;27.70;71.50;;;;;;5033560;28;21021;-60
2023/06/07 09:17:10;;;;;;;12.40;8.77;;;27.70;69.70;;;;;;5049500;28;20479;-59
2023/06/07 09:19:37;;;;;;;8.57;7.40;;;27.80;70.20;;;;;;5057774;28;20497;-59
2023/06/07 09:22:07;;;;;;;8.80;6.60;;;27.90;69.80;;;;;;5058799;28;20486;-59
2023/06/07 09:24:35;;;;;;;9.83;8.00;;;27.70;70.10;;;;;;5057219;28;20487;-60
2023/06/07 09:27:03;;;;;;;10.97;8.83;;;27.60;69.20;;;;;;5053083;28;20563;-60
2023/06/07 09:29:39;;;;;;;18.43;9.97;;;27.80;70.30;;;;;;5048738;28;20498;-60
2023/06/07 09:32:17;;;;;;;11.00;7.90;;;27.80;70.20;;;;;;5056746;28;20486;-60
2023/06/07 09:34:45;;;;;;;13.23;9.17;;;27.80;69.20;;;;;;5026664;28;20688;-60
2023/06/07 09:37:14;;;;;;;11.73;8.60;;;27.90;71.50;;;;;;5040810;28;20510;-60
2023/06/07 09:39:41;;;;;;;14.40;10.40;;;28.00;70.10;;;;;;5044505;28;20497;-60
2023/06/07 09:42:15;;;;;;;15.07;7.33;;;28.00;68.50;;;;;;5041460;28;20512;-60
2023/06/07 09:44:42;;;;;;;13.43;9.50;;;28.10;70.80;;;;;;5035971;28;20478;-60
2023/06/07 09:47:20;;;;;;;8.30;7.40;;;28.20;67.50;;;;;;5039348;28;20571;-60
2023/06/07 09:49:47;;;;;;;10.23;7.70;;;28.20;70.00;;;;;;5053687;28;20544;-60
2023/06/07 09:52:16;;;;;;;11.50;9.30;;;28.10;66.60;;;;;;5047508;28;20483;-60
2023/06/07 09:54:45;;;;;;;15.00;8.70;;;28.30;69.50;;;;;;5046362;28;20581;-60
2023/06/07 09:57:29;;;;;;;9.97;7.67;;;28.50;69.80;;;;;;5069934;28;20482;-60
2023/06/07 09:59:58;;;;;;;12.70;8.73;;;28.40;66.80;;;;;;5045659;28;20580;-60
2023/06/07 10:02:25;;;;;;;15.40;10.57;;;28.30;67.10;;;;;;5056323;28;20826;-60
2023/06/07 10:04:55;;;;;;;10.60;8.50;;;28.40;66.70;;;;;;5041447;28;20467;-61
2023/06/07 10:07:25;;;;;;;11.07;7.30;;;28.60;69.50;;;;;;5037126;28;20501;-60
2023/06/07 10:09:54;;;;;;;13.13;10.30;;;28.40;68.50;;;;;;5048726;28;20513;-61
2023/06/07 10:12:23;;;;;;;15.33;10.73;;;28.30;67.80;;;;;;5038647;28;20483;-60
2023/06/07 10:14:52;;;;;;;15.53;10.10;;;28.40;68.50;;;;;;5053332;28;20490;-60
2023/06/07 10:17:22;;;;;;;15.90;10.40;;;28.50;68.80;;;;;;5046865;28;20481;-61
2023/06/07 10:19:52;;;;;;;11.87;8.67;;;28.70;66.60;;;;;;5056727;28;20712;-60
2023/06/07 10:22:24;;;;;;;14.37;11.13;;;28.70;66.20;;;;;;5041186;28;20559;-61
2023/06/07 10:24:59;;;;;;;11.97;8.90;;;28.70;68.50;;;;;;5053489;28;20485;-61
2023/06/07 10:27:29;;;;;;;18.33;11.37;;;28.80;68.30;;;;;;5052690;28;20856;-60
2023/06/07 10:30:03;;;;;;;9.00;7.67;;;28.90;68.10;;;;;;5041201;28;20498;-60
2023/06/07 10:32:33;;;;;;;18.30;9.17;;;29.30;68.70;;;;;;5054639;28;20449;-61
2023/06/07 10:35:01;;;;;;;10.43;8.53;;;29.50;68.10;;;;;;5049601;28;20591;-61
2023/06/07 10:37:32;;;;;;;11.20;8.60;;;29.70;68.00;;;;;;5049928;28;20492;-60
2023/06/07 10:40:00;;;;;;;11.17;7.07;;;29.60;65.70;;;;;;5036591;28;20548;-61
2023/06/07 10:42:27;;;;;;;15.00;9.70;;;29.40;65.10;;;;;;5055705;28;20995;-60
2023/06/07 10:44:55;;;;;;;11.90;8.80;;;29.00;64.10;;;;;;5042285;28;20745;-60
2023/06/07 10:47:25;;;;;;;17.80;10.27;;;28.70;64.50;;;;;;5041688;28;20486;-60
2023/06/07 10:49:53;;;;;;;10.13;8.23;;;28.70;65.30;;;;;;5035052;28;20608;-60
2023/06/07 10:52:20;;;;;;;18.33;12.50;;;28.80;68.40;;;;;;5060153;28;20492;-60
2023/06/07 10:54:49;;;;;;;21.40;9.20;;;28.90;66.80;;;;;;5042831;28;20609;-61
2023/06/07 10:57:32;;;;;;;11.57;9.90;;;28.60;65.80;;;;;;5019807;28;21047;-61
2023/06/07 11:00:28;;;;;;;10.67;8.33;;;28.60;66.30;;;;;;5027258;28;20699;-61
2023/06/07 11:03:35;;;;;;;18.43;7.33;;;28.80;68.40;;;;;;5028736;28;20482;-61
2023/06/07 11:06:06;;;;;;;7.20;6.50;;;29.10;67.00;;;;;;5035135;28;20481;-61
2023/06/07 11:08:36;;;;;;;10.10;8.17;;;29.40;67.90;;;;;;5039588;28;20493;-61
2023/06/07 11:11:05;;;;;;;9.13;7.70;;;29.50;65.10;;;;;;5046432;28;20617;-61
2023/06/07 11:14:11;;;;;;;10.90;6.40;;;29.90;67.10;;;;;;5025717;28;20478;-61
2023/06/07 11:16:38;;;;;;;10.60;8.10;;;29.90;63.60;;;;;;5021416;28;21726;-61
2023/06/07 11:19:09;;;;;;;9.60;5.60;;;29.90;65.90;;;;;;5046148;28;20464;-62
2023/06/07 11:22:04;;;;;;;12.80;7.77;;;29.80;63.80;;;;;;5044587;28;20486;-61
2023/06/07 11:24:32;;;;;;;12.90;8.90;;;29.40;63.10;;;;;;5047811;28;21170;-61
2023/06/07 11:27:00;;;;;;;8.13;7.27;;;29.20;64.60;;;;;;5038816;28;20863;-61
2023/06/07 11:29:28;;;;;;;15.97;9.80;;;29.20;65.50;;;;;;5024240;28;20489;-61
2023/06/07 11:32:00;;;;;;;11.13;8.93;;;29.40;67.50;;;;;;5041204;28;20983;-61
2023/06/07 11:34:29;;;;;;;14.40;9.23;;;29.40;65.60;;;;;;5027794;28;20491;-61
2023/06/07 11:37:13;;;;;;;9.60;7.30;;;29.20;63.40;;;;;;5037750;28;20483;-61
2023/06/07 11:39:40;;;;;;;22.47;7.50;;;29.00;63.50;;;;;;5019513;28;20499;-61
2023/06/07 11:42:08;;;;;;;8.10;6.53;;;28.80;64.00;;;;;;5052825;28;21021;-60
2023/06/07 11:44:35;;;;;;;9.77;7.93;;;28.50;63.50;;;;;;5039574;28;20486;-61
2023/06/07 11:47:07;;;;;;;11.23;7.40;;;28.40;65.30;;;;;;5049931;28;21053;-60
2023/06/07 11:49:40;;;;;;;13.47;9.33;;;28.50;66.60;;;;;;5047451;28;20501;-61
2023/06/07 11:52:08;;;;;;;7.00;6.30;;;28.60;65.70;;;;;;5049238;28;20990;-61
2023/06/07 11:54:36;;;;;;;9.63;7.83;;;28.40;63.20;;;;;;5029127;28;20510;-61
2023/06/07 11:57:02;;;;;;;6.97;6.07;;;28.60;66.30;;;;;;5054435;28;20991;-62
2023/06/07 11:59:31;;;;;;;13.40;9.63;;;28.60;66.40;;;;;;5050333;28;20505;-61
2023/06/07 12:01:58;;;;;;;8.30;7.40;;;28.80;68.00;;;;;;5046357;28;20501;-62
2023/06/07 12:04:25;;;;;;;16.30;10.73;;;28.80;61.20;;;;;;5066916;28;20481;-60
2023/06/07 12:06:52;;;;;;;12.00;8.67;;;29.20;65.90;;;;;;5053932;28;20486;-61
2023/06/07 12:09:19;;;;;;;10.93;8.20;;;29.40;66.60;;;;;;5062042;28;20479;-61
2023/06/07 12:11:49;;;;;;;8.30;7.07;;;29.50;64.60;;;;;;5045871;28;20864;-61
2023/06/07 12:14:35;;;;;;;18.33;6.80;;;29.60;64.40;;;;;;5056649;28;20518;-61
2023/06/07 12:17:02;;;;;;;6.93;6.10;;;29.90;65.00;;;;;;5057578;28;20471;-61
2023/06/07 12:19:29;;;;;;;11.20;8.23;;;30.20;64.00;;;;;;5056272;28;20825;-62
2023/06/07 12:22:07;;;;;;;7.03;5.97;;;30.20;61.60;;;;;;5057240;28;20478;-61
2023/06/07 12:24:39;;;;;;;8.47;6.70;;;30.40;61.40;;;;;;5045544;28;21135;-61
2023/06/07 12:27:06;;;;;;;4.97;4.50;;;30.70;61.80;;;;;;5057398;28;20475;-61
2023/06/07 12:29:34;;;;;;;8.57;7.37;;;30.90;63.70;;;;;;5058571;28;20859;-61
2023/06/07 12:32:02;;;;;;;7.93;7.13;;;31.00;61.20;;;;;;5047876;28;20496;-61
2023/06/07 12:34:31;;;;;;;6.67;5.80;;;30.80;59.60;;;;;;5056114;28;20483;-61
2023/06/07 12:36:58;;;;;;;6.90;6.23;;;30.50;60.30;;;;;;5055247;28;20907;-61
2023/06/07 12:39:30;;;;;;;8.57;6.00;;;30.20;62.00;;;;;;5052605;28;20899;-61